createdAt,value
2017-11-20T00:00:49.610Z,3.00
2017-11-20T00:03:15.856Z,3.00
2017-11-20T00:05:42.187Z,3.00
2017-11-20T00:08:08.443Z,3.00
2017-11-20T00:10:34.704Z,3.00
2017-11-20T00:13:00.945Z,3.00
2017-11-20T00:15:27.632Z,2.90
2017-11-20T00:17:54.362Z,2.90
2017-11-20T00:20:21.372Z,2.80
2017-11-20T00:22:47.646Z,2.80
2017-11-20T00:25:13.894Z,2.80
2017-11-20T00:27:40.185Z,2.70
2017-11-20T00:30:07.167Z,2.60
2017-11-20T00:32:34.474Z,2.60
2017-11-20T00:35:00.731Z,2.60
2017-11-20T00:37:26.984Z,2.50
2017-11-20T00:39:53.260Z,2.50
2017-11-20T00:42:20.247Z,2.50
2017-11-20T00:44:46.803Z,2.60
2017-11-20T00:47:13.146Z,2.60
2017-11-20T00:49:39.393Z,2.60
2017-11-20T00:52:06.408Z,2.70
2017-11-20T00:54:32.668Z,2.60
2017-11-20T00:56:59.705Z,2.60
2017-11-20T00:59:26.214Z,2.60
2017-11-20T01:01:52.477Z,2.60
2017-11-20T01:04:19.497Z,2.50
2017-11-20T01:06:46.631Z,2.50
2017-11-20T01:09:13.095Z,2.50
2017-11-20T01:11:40.273Z,2.50
2017-11-20T01:14:06.541Z,2.50
2017-11-20T01:16:32.823Z,2.50
2017-11-20T01:18:59.046Z,2.60
2017-11-20T01:21:25.325Z,2.50
2017-11-20T01:23:51.588Z,2.60
2017-11-20T01:26:20.817Z,2.50
2017-11-20T01:28:47.087Z,2.60
2017-11-20T01:31:13.347Z,2.60
2017-11-20T01:33:39.921Z,2.60
2017-11-20T01:36:06.159Z,2.60
2017-11-20T01:38:32.415Z,2.70
2017-11-20T01:40:58.685Z,2.60
2017-11-20T01:43:25.250Z,2.60
2017-11-20T01:45:51.782Z,2.70
2017-11-20T01:48:18.048Z,2.60
2017-11-20T01:50:45.073Z,2.70
2017-11-20T01:53:11.355Z,2.60
2017-11-20T01:55:37.647Z,2.70
2017-11-20T01:58:04.689Z,2.60
2017-11-20T02:00:30.964Z,2.60
2017-11-20T02:02:59.123Z,2.60
2017-11-20T02:05:25.417Z,2.60
2017-11-20T02:07:52.745Z,2.60
2017-11-20T02:10:19.039Z,2.60
2017-11-20T02:12:45.301Z,2.70
2017-11-20T02:15:11.572Z,2.70
2017-11-20T02:17:38.586Z,2.70
2017-11-20T02:20:04.858Z,2.70
2017-11-20T02:22:31.157Z,2.70
2017-11-20T02:24:58.160Z,2.70
2017-11-20T02:27:24.761Z,2.70
2017-11-20T02:29:52.193Z,2.70
2017-11-20T02:32:20.911Z,2.80
2017-11-20T02:34:47.410Z,2.70
2017-11-20T02:37:14.463Z,2.80
2017-11-20T02:39:41.501Z,2.80
2017-11-20T02:42:08.520Z,2.80
2017-11-20T02:44:34.840Z,2.80
2017-11-20T02:47:01.137Z,2.80
2017-11-20T02:49:27.436Z,2.90
2017-11-20T02:51:54.491Z,2.90
2017-11-20T02:54:20.761Z,2.90
2017-11-20T02:56:47.065Z,2.90
2017-11-20T02:59:13.344Z,2.90
2017-11-20T03:01:39.655Z,2.90
2017-11-20T03:04:05.905Z,2.90
2017-11-20T03:06:32.912Z,2.90
2017-11-20T03:08:59.190Z,2.90
2017-11-20T03:11:26.249Z,2.90
2017-11-20T03:13:52.575Z,2.90
2017-11-20T03:16:18.810Z,3.00
2017-11-20T03:18:45.065Z,3.00
2017-11-20T03:21:11.355Z,3.00
2017-11-20T03:23:38.360Z,3.00
2017-11-20T03:26:04.942Z,3.00
2017-11-20T03:28:31.224Z,3.10
2017-11-20T03:30:57.515Z,3.10
2017-11-20T03:33:23.719Z,3.10
2017-11-20T03:35:49.990Z,3.10
2017-11-20T03:38:16.270Z,3.10
2017-11-20T03:40:42.553Z,3.10
2017-11-20T03:43:08.842Z,3.10
2017-11-20T03:45:35.100Z,3.10
2017-11-20T03:48:01.372Z,3.10
2017-11-20T03:50:28.394Z,3.10
2017-11-20T03:52:54.635Z,3.00
2017-11-20T03:55:21.661Z,3.00
2017-11-20T03:57:47.903Z,3.10
2017-11-20T04:00:14.148Z,3.00
2017-11-20T04:02:40.413Z,3.10
2017-11-20T04:05:06.654Z,3.10
2017-11-20T04:07:32.909Z,3.10
2017-11-20T04:09:59.174Z,3.10
2017-11-20T04:12:25.441Z,3.10
2017-11-20T04:14:51.699Z,3.00
2017-11-20T04:17:17.951Z,3.00
2017-11-20T04:19:44.970Z,3.00
2017-11-20T04:22:11.690Z,3.00
2017-11-20T04:24:37.886Z,3.00
2017-11-20T04:27:04.161Z,3.00
2017-11-20T04:29:30.437Z,3.10
2017-11-20T04:31:56.722Z,3.00
2017-11-20T04:34:22.977Z,3.00
2017-11-20T04:36:49.270Z,3.00
2017-11-20T04:39:15.541Z,3.00
2017-11-20T04:41:41.794Z,3.00
2017-11-20T04:44:08.086Z,3.00
2017-11-20T04:46:34.357Z,3.00
2017-11-20T04:49:00.620Z,3.00
2017-11-20T04:51:27.667Z,3.00
2017-11-20T04:53:54.673Z,3.00
2017-11-20T04:56:20.950Z,3.00
2017-11-20T04:58:47.950Z,3.00
2017-11-20T05:01:14.246Z,3.00
2017-11-20T05:03:40.520Z,3.00
2017-11-20T05:06:06.751Z,3.00
2017-11-20T05:08:33.022Z,3.00
2017-11-20T05:10:59.288Z,3.00
2017-11-20T05:13:25.512Z,3.00
2017-11-20T05:15:51.852Z,3.00
2017-11-20T05:18:18.112Z,3.00
2017-11-20T05:20:45.118Z,3.00
2017-11-20T05:23:11.390Z,3.00
2017-11-20T05:25:37.658Z,3.00
2017-11-20T05:28:04.252Z,3.00
2017-11-20T05:30:32.850Z,3.00
2017-11-20T05:33:00.036Z,3.00
2017-11-20T05:35:26.298Z,3.00
2017-11-20T05:37:53.306Z,3.00
2017-11-20T05:40:19.587Z,3.00
2017-11-20T05:42:45.906Z,3.00
2017-11-20T05:45:12.459Z,3.10
2017-11-20T05:47:38.734Z,3.50
2017-11-20T05:50:04.970Z,3.90
2017-11-20T05:52:31.246Z,4.20
2017-11-20T05:54:57.510Z,4.40
2017-11-20T05:57:24.433Z,4.60
2017-11-20T05:59:50.699Z,4.80
2017-11-20T06:02:16.948Z,4.70
2017-11-20T06:04:43.232Z,4.40
2017-11-20T06:07:09.481Z,4.20
2017-11-20T06:09:35.720Z,4.10
2017-11-20T06:12:02.770Z,3.80
2017-11-20T06:14:29.745Z,3.90
2017-11-20T06:16:56.351Z,3.90
2017-11-20T06:19:23.359Z,4.00
2017-11-20T06:21:49.613Z,4.00
2017-11-20T06:24:16.707Z,4.00
2017-11-20T06:26:52.280Z,4.00
2017-11-20T06:29:19.318Z,3.90
2017-11-20T06:31:45.575Z,3.70
2017-11-20T06:34:13.604Z,3.60
2017-11-20T06:36:39.993Z,3.50
2017-11-20T06:39:06.253Z,3.50
2017-11-20T06:41:32.530Z,3.40
2017-11-20T06:43:59.513Z,3.40
2017-11-20T06:46:26.061Z,3.40
2017-11-20T06:48:52.322Z,3.50
2017-11-20T06:51:18.576Z,3.60
2017-11-20T06:53:45.582Z,3.60
2017-11-20T06:56:11.830Z,3.60
2017-11-20T06:58:38.081Z,3.70
2017-11-20T07:01:04.339Z,3.70
2017-11-20T07:03:30.744Z,3.80
2017-11-20T07:05:57.015Z,3.80
2017-11-20T07:08:23.283Z,3.80
2017-11-20T07:10:50.311Z,3.70
2017-11-20T07:13:16.532Z,3.60
2017-11-20T07:15:42.784Z,3.60
2017-11-20T07:18:09.829Z,3.60
2017-11-20T07:20:36.976Z,3.50
2017-11-20T07:23:04.016Z,3.60
2017-11-20T07:25:38.141Z,3.70
2017-11-20T07:28:05.210Z,3.70
2017-11-20T07:30:43.747Z,3.70
2017-11-20T07:33:10.454Z,3.80
2017-11-20T07:35:48.852Z,3.90
2017-11-20T07:38:17.449Z,3.80
2017-11-20T07:40:55.965Z,3.80
2017-11-20T07:43:22.277Z,3.80
2017-11-20T07:45:48.529Z,3.80
2017-11-20T07:48:14.784Z,3.80
2017-11-20T07:50:41.018Z,3.80
2017-11-20T07:53:07.291Z,3.80
2017-11-20T07:55:33.835Z,3.80
2017-11-20T07:58:00.090Z,3.80
2017-11-20T08:00:26.352Z,3.80
2017-11-20T08:02:52.898Z,3.80
2017-11-20T08:05:19.443Z,3.80
2017-11-20T08:07:45.720Z,3.90
2017-11-20T08:10:11.965Z,3.90
2017-11-20T08:12:38.234Z,3.90
2017-11-20T08:15:04.498Z,3.80
2017-11-20T08:17:30.786Z,3.80
2017-11-20T08:19:57.037Z,3.80
2017-11-20T08:22:23.327Z,3.80
2017-11-20T08:24:50.306Z,3.80
2017-11-20T08:27:16.583Z,3.80
2017-11-20T08:29:42.861Z,3.80
2017-11-20T08:32:09.112Z,3.80
2017-11-20T08:34:35.397Z,3.80
2017-11-20T08:37:03.043Z,3.70
2017-11-20T08:39:30.403Z,3.70
2017-11-20T08:41:56.657Z,3.60
2017-11-20T08:44:23.188Z,3.60
2017-11-20T08:46:49.472Z,3.70
2017-11-20T08:49:16.212Z,3.70
2017-11-20T08:51:43.711Z,3.70
2017-11-20T08:54:10.017Z,3.80
2017-11-20T08:56:36.289Z,3.90
2017-11-20T08:59:02.601Z,3.90
2017-11-20T09:01:28.858Z,4.00
2017-11-20T09:03:55.557Z,4.10
2017-11-20T09:06:23.985Z,4.20
2017-11-20T09:08:50.456Z,4.20
2017-11-20T09:11:16.806Z,4.30
2017-11-20T09:13:43.793Z,4.40
2017-11-20T09:16:10.405Z,4.40
2017-11-20T09:18:36.699Z,4.50
2017-11-20T09:21:03.598Z,4.50
2017-11-20T09:23:29.879Z,4.60
2017-11-20T09:25:56.181Z,4.60
2017-11-20T09:28:24.184Z,4.70
2017-11-20T09:30:50.461Z,4.70
2017-11-20T09:33:17.514Z,4.70
2017-11-20T09:35:45.229Z,4.70
2017-11-20T09:38:11.545Z,4.80
2017-11-20T09:40:37.821Z,4.80
2017-11-20T09:43:05.167Z,4.80
2017-11-20T09:45:31.481Z,4.80
2017-11-20T09:47:57.795Z,4.80
2017-11-20T09:50:26.289Z,4.90
2017-11-20T09:52:52.871Z,4.90
2017-11-20T09:55:19.164Z,4.90
2017-11-20T09:57:45.462Z,4.90
2017-11-20T10:00:11.733Z,4.90
2017-11-20T10:02:39.093Z,5.00
2017-11-20T10:05:06.430Z,5.00
2017-11-20T10:07:32.891Z,5.00
2017-11-20T10:09:59.214Z,5.00
2017-11-20T10:12:25.544Z,5.00
2017-11-20T10:14:52.264Z,5.00
2017-11-20T10:17:18.727Z,5.00
2017-11-20T10:19:45.050Z,5.00
2017-11-20T10:22:11.368Z,5.00
2017-11-20T10:24:38.441Z,5.00
2017-11-20T10:27:05.910Z,5.00
2017-11-20T10:29:32.227Z,5.00
2017-11-20T10:31:58.824Z,5.00
2017-11-20T10:34:27.058Z,5.00
2017-11-20T10:36:54.856Z,5.00
2017-11-20T10:39:21.903Z,5.00
2017-11-20T10:41:49.455Z,5.00
2017-11-20T10:44:16.123Z,5.00
2017-11-20T10:46:43.889Z,5.00
2017-11-20T10:49:11.389Z,5.00
2017-11-20T10:51:40.276Z,5.00
2017-11-20T10:54:07.452Z,5.00
2017-11-20T10:56:34.776Z,5.10
2017-11-20T10:59:01.050Z,5.00
2017-11-20T11:01:27.355Z,5.10
2017-11-20T11:03:53.698Z,5.10
2017-11-20T11:06:20.018Z,5.10
2017-11-20T11:08:47.100Z,5.20
2017-11-20T11:11:13.411Z,5.20
2017-11-20T11:13:40.440Z,5.40
2017-11-20T11:16:07.455Z,5.40
2017-11-20T11:18:33.735Z,5.40
2017-11-20T11:21:00.050Z,5.40
2017-11-20T11:23:27.084Z,5.50
2017-11-20T11:25:53.361Z,5.50
2017-11-20T11:28:19.695Z,5.50
2017-11-20T11:30:50.142Z,5.50
2017-11-20T11:33:16.412Z,5.50
2017-11-20T11:35:42.704Z,5.50
2017-11-20T11:38:08.984Z,5.50
2017-11-20T11:40:35.246Z,5.50
2017-11-20T11:43:01.796Z,5.50
2017-11-20T11:45:28.112Z,5.50
2017-11-20T11:47:54.434Z,5.50
2017-11-20T11:50:20.720Z,5.50
2017-11-20T11:52:47.042Z,5.50
2017-11-20T11:55:13.337Z,5.40
2017-11-20T11:57:39.616Z,5.40
2017-11-20T12:00:05.912Z,5.40
2017-11-20T12:02:32.947Z,5.40
2017-11-20T12:04:59.243Z,5.40
2017-11-20T12:07:25.497Z,5.30
2017-11-20T12:09:51.794Z,5.30
2017-11-20T12:12:18.068Z,5.30
2017-11-20T12:14:45.122Z,5.20
2017-11-20T12:17:12.185Z,5.20
2017-11-20T12:19:38.474Z,5.20
2017-11-20T12:22:12.102Z,5.20
2017-11-20T12:24:38.386Z,5.20
2017-11-20T12:27:04.667Z,5.30
2017-11-20T12:29:30.976Z,5.20
2017-11-20T12:31:58.016Z,5.20
2017-11-20T12:34:25.325Z,5.20
2017-11-20T12:36:51.623Z,5.20
2017-11-20T12:39:18.030Z,5.20
2017-11-20T12:41:45.097Z,5.20
2017-11-20T12:44:11.412Z,5.20
2017-11-20T12:46:38.480Z,5.20
2017-11-20T12:49:04.850Z,5.20
2017-11-20T12:51:31.147Z,5.30
2017-11-20T12:53:57.539Z,5.60
2017-11-20T12:56:23.862Z,5.90
2017-11-20T12:58:50.176Z,6.10
2017-11-20T13:01:16.469Z,6.10
2017-11-20T13:03:42.767Z,6.00
2017-11-20T13:06:09.070Z,5.90
2017-11-20T13:08:35.388Z,5.60
2017-11-20T13:11:01.676Z,5.40
2017-11-20T13:13:28.014Z,5.20
2017-11-20T13:15:54.287Z,5.10
2017-11-20T13:18:20.558Z,5.00
2017-11-20T13:20:46.880Z,4.90
2017-11-20T13:23:13.178Z,4.80
2017-11-20T13:25:40.206Z,4.70
2017-11-20T13:28:06.517Z,4.70
2017-11-20T13:30:32.807Z,4.70
2017-11-20T13:32:59.399Z,4.60
2017-11-20T13:35:25.717Z,4.60
2017-11-20T13:37:51.995Z,4.60
2017-11-20T13:40:18.331Z,4.50
2017-11-20T13:42:44.611Z,4.40
2017-11-20T13:45:10.944Z,4.40
2017-11-20T13:47:37.246Z,4.40
2017-11-20T13:50:03.586Z,4.30
2017-11-20T13:52:29.969Z,4.30
2017-11-20T13:54:56.286Z,4.20
2017-11-20T13:57:23.335Z,3.90
2017-11-20T13:59:49.632Z,3.90
2017-11-20T14:02:15.915Z,3.70
2017-11-20T14:04:42.239Z,3.60
2017-11-20T14:07:08.539Z,3.50
2017-11-20T14:09:34.854Z,3.50
2017-11-20T14:12:01.213Z,3.40
2017-11-20T14:14:27.515Z,3.40
2017-11-20T14:16:54.591Z,3.30
2017-11-20T14:19:20.930Z,3.30
2017-11-20T14:21:47.210Z,3.30
2017-11-20T14:24:13.621Z,3.30
2017-11-20T14:26:40.055Z,3.30
2017-11-20T14:29:06.433Z,3.20
2017-11-20T14:31:32.902Z,3.20
2017-11-20T14:33:59.352Z,3.20
2017-11-20T14:36:25.759Z,3.20
2017-11-20T14:38:52.200Z,3.20
2017-11-20T14:41:18.511Z,3.10
2017-11-20T14:43:44.864Z,3.10
2017-11-20T14:46:13.885Z,3.10
2017-11-20T14:48:43.396Z,3.20
2017-11-20T14:51:35.619Z,3.20
2017-11-20T14:54:02.110Z,3.20
2017-11-20T14:56:28.432Z,3.30
2017-11-20T14:58:54.731Z,3.30
2017-11-20T15:01:22.097Z,3.30
2017-11-20T15:03:49.042Z,3.30
2017-11-20T15:06:15.349Z,3.30
2017-11-20T15:08:42.400Z,3.30
2017-11-20T15:11:09.478Z,3.20
2017-11-20T15:13:36.120Z,3.20
2017-11-20T15:16:02.405Z,3.10
2017-11-20T15:18:29.455Z,3.10
2017-11-20T15:20:56.526Z,3.00
2017-11-20T15:23:22.834Z,2.90
2017-11-20T15:25:49.215Z,2.90
2017-11-20T15:28:15.501Z,2.90
2017-11-20T15:30:41.796Z,2.80
2017-11-20T15:33:08.117Z,2.80
2017-11-20T15:35:34.408Z,2.80
2017-11-20T15:38:00.756Z,2.80
2017-11-20T15:40:27.029Z,2.90
2017-11-20T15:42:54.059Z,2.90
2017-11-20T15:45:21.091Z,2.90
2017-11-20T15:47:47.356Z,2.90
2017-11-20T15:50:13.725Z,2.90
2017-11-20T15:52:41.660Z,2.90
2017-11-20T15:55:07.998Z,2.90
2017-11-20T15:57:34.360Z,2.90
2017-11-20T16:00:00.649Z,2.90
2017-11-20T16:02:27.230Z,2.90
2017-11-20T16:04:54.990Z,2.90
2017-11-20T16:07:21.280Z,2.90
2017-11-20T16:09:47.635Z,2.90
2017-11-20T16:12:13.979Z,2.90
2017-11-20T16:14:40.301Z,2.80
2017-11-20T16:17:07.000Z,2.80
2017-11-20T16:19:33.301Z,2.80
2017-11-20T16:22:00.384Z,2.80
2017-11-20T16:24:26.697Z,2.80
2017-11-20T16:26:52.993Z,2.80
2017-11-20T16:29:20.563Z,2.90
2017-11-20T16:31:47.595Z,2.90
2017-11-20T16:34:13.929Z,2.90
2017-11-20T16:36:40.245Z,2.90
2017-11-20T16:39:06.513Z,2.90
2017-11-20T16:41:32.818Z,2.80
2017-11-20T16:43:59.897Z,2.80
2017-11-20T16:46:26.239Z,2.80
2017-11-20T16:48:52.539Z,2.80
2017-11-20T16:51:18.874Z,2.80
2017-11-20T16:53:45.154Z,2.90
2017-11-20T16:56:11.443Z,2.90
2017-11-20T16:58:47.822Z,2.80
2017-11-20T17:01:26.992Z,2.80
2017-11-20T17:03:54.251Z,2.80
2017-11-20T17:06:22.114Z,2.80
2017-11-20T17:08:50.303Z,2.90
2017-11-20T17:11:17.385Z,2.90
2017-11-20T17:13:44.600Z,3.00
2017-11-20T17:16:11.632Z,3.00
2017-11-20T17:18:37.913Z,3.00
2017-11-20T17:21:04.176Z,3.80
2017-11-20T17:23:30.461Z,4.60
2017-11-20T17:25:57.678Z,5.10
2017-11-20T17:28:24.686Z,5.40
2017-11-20T17:30:50.952Z,5.40
2017-11-20T17:33:17.980Z,5.60
2017-11-20T17:35:45.035Z,5.20
2017-11-20T17:38:11.319Z,5.20
2017-11-20T17:40:37.721Z,4.80
2017-11-20T17:43:03.977Z,4.40
2017-11-20T17:45:30.338Z,4.20
2017-11-20T17:47:57.399Z,3.90
2017-11-20T17:50:24.791Z,3.90
2017-11-20T17:52:51.132Z,3.80
2017-11-20T17:55:17.428Z,3.70
2017-11-20T17:57:45.084Z,3.60
2017-11-20T18:00:11.386Z,3.50
2017-11-20T18:02:38.162Z,3.40
2017-11-20T18:05:04.515Z,3.40
2017-11-20T18:07:30.804Z,3.40
2017-11-20T18:10:01.724Z,3.40
2017-11-20T18:12:30.521Z,3.40
2017-11-20T18:14:57.200Z,3.30
2017-11-20T18:17:23.571Z,3.30
2017-11-20T18:19:49.904Z,3.30
2017-11-20T18:22:16.291Z,3.30
2017-11-20T18:24:43.781Z,3.30
2017-11-20T18:27:10.185Z,3.20
2017-11-20T18:29:36.555Z,3.20
2017-11-20T18:32:03.361Z,3.20
2017-11-20T18:34:29.685Z,3.20
2017-11-20T18:36:57.372Z,3.20
2017-11-20T18:39:24.962Z,3.30
2017-11-20T18:41:52.221Z,3.30
2017-11-20T18:44:18.666Z,3.20
2017-11-20T18:46:45.126Z,3.20
2017-11-20T18:49:11.493Z,3.30
2017-11-20T18:51:37.859Z,3.30
2017-11-20T18:54:04.265Z,3.30
2017-11-20T18:56:30.652Z,3.40
2017-11-20T18:58:56.955Z,3.40
2017-11-20T19:01:35.511Z,3.40
2017-11-20T19:04:14.113Z,3.40
2017-11-20T19:06:52.551Z,3.50
2017-11-20T19:09:18.931Z,3.50
2017-11-20T19:11:45.331Z,3.50
2017-11-20T19:14:11.621Z,3.50
2017-11-20T19:16:37.915Z,3.50
2017-11-20T19:19:04.244Z,3.50
2017-11-20T19:21:31.394Z,3.60
2017-11-20T19:23:57.857Z,3.50
2017-11-20T19:26:24.275Z,3.60
2017-11-20T19:28:50.617Z,3.60
2017-11-20T19:31:17.044Z,3.60
2017-11-20T19:33:43.385Z,3.60
2017-11-20T19:36:10.510Z,3.60
2017-11-20T19:38:36.945Z,3.60
2017-11-20T19:41:03.331Z,3.60
2017-11-20T19:43:29.778Z,3.60
2017-11-20T19:45:56.135Z,3.60
2017-11-20T19:48:22.597Z,3.70
2017-11-20T19:50:49.005Z,3.70
2017-11-20T19:53:15.390Z,3.70
2017-11-20T19:55:48.660Z,3.70
2017-11-20T19:58:15.056Z,3.70
2017-11-20T20:00:41.516Z,3.70
2017-11-20T20:03:07.930Z,3.80
2017-11-20T20:05:35.061Z,3.80
2017-11-20T20:10:35.581Z,3.80
2017-11-20T20:13:01.948Z,3.80
2017-11-20T20:15:41.205Z,3.80
2017-11-20T20:18:07.611Z,3.80
2017-11-20T20:20:33.939Z,3.80
2017-11-20T20:23:00.269Z,3.90
2017-11-20T20:25:27.837Z,3.90
2017-11-20T20:27:54.359Z,3.90
2017-11-20T20:30:20.974Z,3.90
2017-11-20T20:32:47.365Z,4.00
2017-11-20T20:35:13.765Z,4.00
2017-11-20T20:37:40.890Z,4.10
2017-11-20T20:40:09.097Z,4.10
2017-11-20T20:42:36.731Z,4.10
2017-11-20T20:45:04.240Z,4.10
2017-11-20T20:47:30.777Z,4.10
2017-11-20T20:49:57.189Z,4.10
2017-11-20T20:52:25.445Z,4.10
2017-11-20T20:54:52.104Z,4.10
2017-11-20T20:57:18.469Z,4.10
2017-11-20T20:59:45.165Z,4.10
2017-11-20T21:02:11.853Z,4.20
2017-11-20T21:04:38.370Z,4.20
2017-11-20T21:07:04.747Z,4.20
2017-11-20T21:09:41.525Z,4.20
2017-11-20T21:12:14.785Z,4.20
2017-11-20T21:14:41.183Z,4.10
2017-11-20T21:17:08.190Z,4.10
2017-11-20T21:19:35.272Z,4.10
2017-11-20T21:22:01.616Z,4.10
2017-11-20T21:24:28.292Z,4.10
2017-11-20T21:26:54.665Z,4.10
2017-11-20T21:29:20.953Z,4.10
2017-11-20T21:31:47.285Z,4.10
2017-11-20T21:34:14.036Z,4.10
2017-11-20T21:36:40.392Z,4.10
2017-11-20T21:39:06.708Z,4.10
2017-11-20T21:41:32.971Z,4.10
2017-11-20T21:43:59.413Z,4.20
2017-11-20T21:46:25.692Z,4.10
2017-11-20T21:48:51.983Z,4.20
2017-11-20T21:51:18.306Z,4.20
2017-11-20T21:53:44.641Z,4.20
2017-11-20T21:56:11.892Z,4.20
2017-11-20T21:58:39.451Z,4.20
2017-11-20T22:01:06.007Z,4.20
2017-11-20T22:03:33.012Z,4.20
2017-11-20T22:05:59.435Z,4.20
2017-11-20T22:08:25.785Z,4.20
2017-11-20T22:10:52.049Z,4.20
2017-11-20T22:13:27.192Z,4.20
2017-11-20T22:15:53.485Z,4.20
2017-11-20T22:18:20.428Z,4.20
2017-11-20T22:20:46.861Z,4.20
2017-11-20T22:23:13.634Z,4.20
2017-11-20T22:25:40.413Z,4.30
2017-11-20T22:28:06.696Z,4.30
2017-11-20T22:30:33.752Z,4.30
2017-11-20T22:33:01.020Z,4.30
2017-11-20T22:35:28.136Z,4.20
2017-11-20T22:37:54.573Z,4.20
2017-11-20T22:40:21.950Z,4.20
2017-11-20T22:42:48.322Z,4.20
2017-11-20T22:45:14.607Z,4.20
2017-11-20T22:47:40.902Z,4.20
2017-11-20T22:50:07.937Z,4.20
2017-11-20T22:52:34.930Z,4.20
2017-11-20T22:55:01.185Z,4.20
2017-11-20T22:57:27.471Z,4.20
2017-11-20T22:59:53.770Z,4.20
2017-11-20T23:02:20.828Z,4.30
2017-11-20T23:04:47.101Z,4.30
2017-11-20T23:07:13.430Z,4.30
2017-11-20T23:09:39.690Z,4.30
2017-11-20T23:12:06.452Z,4.40
2017-11-20T23:14:32.738Z,4.40
2017-11-20T23:16:59.001Z,4.40
2017-11-20T23:19:25.296Z,4.50
2017-11-20T23:21:51.581Z,4.50
2017-11-20T23:24:17.853Z,4.50
2017-11-20T23:26:44.173Z,4.50
2017-11-20T23:29:10.437Z,4.50
2017-11-20T23:31:37.432Z,4.60
2017-11-20T23:34:03.724Z,4.60
2017-11-20T23:36:29.970Z,4.60
2017-11-20T23:38:57.108Z,4.60
2017-11-20T23:41:23.356Z,4.60
2017-11-20T23:43:49.595Z,4.60
2017-11-20T23:46:15.856Z,4.60
2017-11-20T23:48:42.134Z,4.70
2017-11-20T23:51:08.429Z,4.70
2017-11-20T23:53:35.379Z,4.70
2017-11-20T23:56:01.636Z,4.70
2017-11-20T23:58:27.888Z,4.70
